sensor_id;sensor_type;location;lat;lon;timestamp;temperature;humidity
20998;DHT22;10657;51.276;6.390;2023-05-07T00:00:55;15.50;99.90
20998;DHT22;10657;51.276;6.390;2023-05-07T00:03:22;15.50;99.90
20998;DHT22;10657;51.276;6.390;2023-05-07T00:05:49;15.60;99.90
20998;DHT22;10657;51.276;6.390;2023-05-07T00:08:15;15.50;99.90
20998;DHT22;10657;51.276;6.390;2023-05-07T00:10:42;15.50;99.90
20998;DHT22;10657;51.276;6.390;2023-05-07T00:13:09;15.50;99.90
20998;DHT22;10657;51.276;6.390;2023-05-07T00:15:35;15.50;99.90
20998;DHT22;10657;51.276;6.390;2023-05-07T00:18:02;15.50;99.90
20998;DHT22;10657;51.276;6.390;2023-05-07T00:20:29;15.50;99.90
20998;DHT22;10657;51.276;6.390;2023-05-07T00:22:56;15.50;99.90
20998;DHT22;10657;51.276;6.390;2023-05-07T00:25:22;15.60;99.90
20998;DHT22;10657;51.276;6.390;2023-05-07T00:27:49;15.60;99.90
20998;DHT22;10657;51.276;6.390;2023-05-07T00:30:15;15.60;99.90
20998;DHT22;10657;51.276;6.390;2023-05-07T00:32:42;15.50;99.90
20998;DHT22;10657;51.276;6.390;2023-05-07T00:35:11;15.50;99.90
20998;DHT22;10657;51.276;6.390;2023-05-07T00:37:39;15.40;99.90
20998;DHT22;10657;51.276;6.390;2023-05-07T00:40:06;15.40;99.90
20998;DHT22;10657;51.276;6.390;2023-05-07T00:42:34;15.30;99.90
20998;DHT22;10657;51.276;6.390;2023-05-07T00:45:01;15.20;99.90
20998;DHT22;10657;51.276;6.390;2023-05-07T00:47:27;15.20;99.90
20998;DHT22;10657;51.276;6.390;2023-05-07T00:49:54;15.30;99.90
20998;DHT22;10657;51.276;6.390;2023-05-07T00:52:21;15.30;99.90
20998;DHT22;10657;51.276;6.390;2023-05-07T00:54:50;15.20;99.90
20998;DHT22;10657;51.276;6.390;2023-05-07T00:57:17;15.20;99.90
20998;DHT22;10657;51.276;6.390;2023-05-07T00:59:44;15.20;99.90
20998;DHT22;10657;51.276;6.390;2023-05-07T01:02:10;15.10;99.90
20998;DHT22;10657;51.276;6.390;2023-05-07T01:04:37;15.10;99.90
20998;DHT22;10657;51.276;6.390;2023-05-07T01:07:04;15.20;99.90
20998;DHT22;10657;51.276;6.390;2023-05-07T01:09:31;15.20;99.90
20998;DHT22;10657;51.276;6.390;2023-05-07T01:11:59;15.20;99.90
20998;DHT22;10657;51.276;6.390;2023-05-07T01:14:26;15.20;99.90
20998;DHT22;10657;51.276;6.390;2023-05-07T01:16:53;15.20;99.90
20998;DHT22;10657;51.276;6.390;2023-05-07T01:19:20;15.10;99.90
20998;DHT22;10657;51.276;6.390;2023-05-07T01:21:48;15.20;99.90
20998;DHT22;10657;51.276;6.390;2023-05-07T01:24:15;15.20;99.90
20998;DHT22;10657;51.276;6.390;2023-05-07T01:26:43;15.20;99.90
20998;DHT22;10657;51.276;6.390;2023-05-07T01:29:11;15.20;99.90
20998;DHT22;10657;51.276;6.390;2023-05-07T01:31:38;15.10;99.90
20998;DHT22;10657;51.276;6.390;2023-05-07T01:34:07;15.10;99.90
20998;DHT22;10657;51.276;6.390;2023-05-07T01:36:37;15.20;99.90
20998;DHT22;10657;51.276;6.390;2023-05-07T01:39:06;15.20;99.90
20998;DHT22;10657;51.276;6.390;2023-05-07T01:41:33;15.10;99.90
20998;DHT22;10657;51.276;6.390;2023-05-07T01:44:00;15.20;99.90
20998;DHT22;10657;51.276;6.390;2023-05-07T01:46:27;15.10;99.90
20998;DHT22;10657;51.276;6.390;2023-05-07T01:48:54;15.10;99.90
20998;DHT22;10657;51.276;6.390;2023-05-07T01:51:21;15.00;99.90
20998;DHT22;10657;51.276;6.390;2023-05-07T01:53:48;14.90;99.90
20998;DHT22;10657;51.276;6.390;2023-05-07T01:56:18;15.00;99.90
20998;DHT22;10657;51.276;6.390;2023-05-07T01:58:45;15.10;99.90
20998;DHT22;10657;51.276;6.390;2023-05-07T02:01:14;15.10;99.90
20998;DHT22;10657;51.276;6.390;2023-05-07T02:03:41;15.00;99.90
20998;DHT22;10657;51.276;6.390;2023-05-07T02:06:08;15.10;99.90
20998;DHT22;10657;51.276;6.390;2023-05-07T02:08:35;15.10;99.90
20998;DHT22;10657;51.276;6.390;2023-05-07T02:11:02;15.10;99.90
20998;DHT22;10657;51.276;6.390;2023-05-07T02:13:32;15.20;99.90
20998;DHT22;10657;51.276;6.390;2023-05-07T02:15:59;15.10;99.90
20998;DHT22;10657;51.276;6.390;2023-05-07T02:18:25;15.00;99.90
20998;DHT22;10657;51.276;6.390;2023-05-07T02:20:52;15.00;99.90
20998;DHT22;10657;51.276;6.390;2023-05-07T02:23:19;15.00;99.90
20998;DHT22;10657;51.276;6.390;2023-05-07T02:25:45;14.90;99.90
20998;DHT22;10657;51.276;6.390;2023-05-07T02:28:12;14.80;99.90
20998;DHT22;10657;51.276;6.390;2023-05-07T02:30:39;14.90;99.90
20998;DHT22;10657;51.276;6.390;2023-05-07T02:33:06;15.00;99.90
20998;DHT22;10657;51.276;6.390;2023-05-07T02:35:34;15.00;99.90
20998;DHT22;10657;51.276;6.390;2023-05-07T02:38:01;15.00;99.90
20998;DHT22;10657;51.276;6.390;2023-05-07T02:40:28;15.00;99.90
20998;DHT22;10657;51.276;6.390;2023-05-07T02:42:55;15.00;99.90
20998;DHT22;10657;51.276;6.390;2023-05-07T02:45:21;15.00;99.90
20998;DHT22;10657;51.276;6.390;2023-05-07T02:47:48;15.00;99.90
20998;DHT22;10657;51.276;6.390;2023-05-07T02:50:15;15.00;99.90
20998;DHT22;10657;51.276;6.390;2023-05-07T02:52:41;15.00;99.90
20998;DHT22;10657;51.276;6.390;2023-05-07T02:55:08;15.00;99.90
20998;DHT22;10657;51.276;6.390;2023-05-07T02:57:35;15.00;99.90
20998;DHT22;10657;51.276;6.390;2023-05-07T03:00:13;14.90;99.90
20998;DHT22;10657;51.276;6.390;2023-05-07T03:02:40;14.90;99.90
20998;DHT22;10657;51.276;6.390;2023-05-07T03:05:07;14.90;99.90
20998;DHT22;10657;51.276;6.390;2023-05-07T03:07:35;15.00;99.90
20998;DHT22;10657;51.276;6.390;2023-05-07T03:10:02;14.90;99.90
20998;DHT22;10657;51.276;6.390;2023-05-07T03:12:30;14.90;99.90
20998;DHT22;10657;51.276;6.390;2023-05-07T03:14:57;14.90;99.90
20998;DHT22;10657;51.276;6.390;2023-05-07T03:17:24;14.90;99.90
20998;DHT22;10657;51.276;6.390;2023-05-07T03:19:51;14.90;99.90
20998;DHT22;10657;51.276;6.390;2023-05-07T03:22:17;14.80;99.90
20998;DHT22;10657;51.276;6.390;2023-05-07T03:24:44;14.80;99.90
20998;DHT22;10657;51.276;6.390;2023-05-07T03:27:11;14.90;99.90
20998;DHT22;10657;51.276;6.390;2023-05-07T03:29:37;14.80;99.90
20998;DHT22;10657;51.276;6.390;2023-05-07T03:32:04;14.90;99.90
20998;DHT22;10657;51.276;6.390;2023-05-07T03:34:32;14.80;99.90
20998;DHT22;10657;51.276;6.390;2023-05-07T03:36:59;14.90;99.90
20998;DHT22;10657;51.276;6.390;2023-05-07T03:39:26;15.00;99.90
20998;DHT22;10657;51.276;6.390;2023-05-07T03:41:53;14.90;99.90
20998;DHT22;10657;51.276;6.390;2023-05-07T03:44:20;14.90;99.90
20998;DHT22;10657;51.276;6.390;2023-05-07T03:46:46;14.80;99.90
20998;DHT22;10657;51.276;6.390;2023-05-07T03:49:13;14.80;99.90
20998;DHT22;10657;51.276;6.390;2023-05-07T03:51:40;14.80;99.90
20998;DHT22;10657;51.276;6.390;2023-05-07T03:54:07;14.80;99.90
20998;DHT22;10657;51.276;6.390;2023-05-07T03:56:34;14.90;99.90
20998;DHT22;10657;51.276;6.390;2023-05-07T03:59:00;14.80;99.90
20998;DHT22;10657;51.276;6.390;2023-05-07T04:01:27;14.80;99.90
20998;DHT22;10657;51.276;6.390;2023-05-07T04:03:55;14.80;99.90
20998;DHT22;10657;51.276;6.390;2023-05-07T04:06:22;14.80;99.90
20998;DHT22;10657;51.276;6.390;2023-05-07T04:08:49;14.80;99.90
20998;DHT22;10657;51.276;6.390;2023-05-07T04:11:15;14.80;99.90
20998;DHT22;10657;51.276;6.390;2023-05-07T04:13:42;14.80;99.90
20998;DHT22;10657;51.276;6.390;2023-05-07T04:16:08;14.80;99.90
20998;DHT22;10657;51.276;6.390;2023-05-07T04:18:35;14.80;99.90
20998;DHT22;10657;51.276;6.390;2023-05-07T04:21:02;14.80;99.90
20998;DHT22;10657;51.276;6.390;2023-05-07T04:23:29;14.80;99.90
20998;DHT22;10657;51.276;6.390;2023-05-07T04:25:55;14.80;99.90
20998;DHT22;10657;51.276;6.390;2023-05-07T04:28:22;14.80;99.90
20998;DHT22;10657;51.276;6.390;2023-05-07T04:30:49;14.80;99.90
20998;DHT22;10657;51.276;6.390;2023-05-07T04:33:16;14.80;99.90
20998;DHT22;10657;51.276;6.390;2023-05-07T04:35:43;14.80;99.90
20998;DHT22;10657;51.276;6.390;2023-05-07T04:38:10;14.80;99.90
20998;DHT22;10657;51.276;6.390;2023-05-07T04:40:37;14.90;99.90
20998;DHT22;10657;51.276;6.390;2023-05-07T04:43:05;14.70;99.90
20998;DHT22;10657;51.276;6.390;2023-05-07T04:45:32;14.70;99.90
20998;DHT22;10657;51.276;6.390;2023-05-07T04:47:58;14.80;99.90
20998;DHT22;10657;51.276;6.390;2023-05-07T04:50:25;14.80;99.90
20998;DHT22;10657;51.276;6.390;2023-05-07T04:52:52;14.80;99.90
20998;DHT22;10657;51.276;6.390;2023-05-07T04:55:18;14.80;99.90
20998;DHT22;10657;51.276;6.390;2023-05-07T04:57:45;14.90;99.90
20998;DHT22;10657;51.276;6.390;2023-05-07T05:00:12;14.80;99.90
20998;DHT22;10657;51.276;6.390;2023-05-07T05:02:41;14.80;99.90
20998;DHT22;10657;51.276;6.390;2023-05-07T05:05:08;14.80;99.90
20998;DHT22;10657;51.276;6.390;2023-05-07T05:07:34;14.80;99.90
20998;DHT22;10657;51.276;6.390;2023-05-07T05:10:02;14.80;99.90
20998;DHT22;10657;51.276;6.390;2023-05-07T05:12:29;14.80;99.90
20998;DHT22;10657;51.276;6.390;2023-05-07T05:14:56;14.80;99.90
20998;DHT22;10657;51.276;6.390;2023-05-07T05:17:23;14.90;99.90
20998;DHT22;10657;51.276;6.390;2023-05-07T05:19:50;14.90;99.90
20998;DHT22;10657;51.276;6.390;2023-05-07T05:22:17;14.90;99.90
20998;DHT22;10657;51.276;6.390;2023-05-07T05:24:43;14.90;99.90
20998;DHT22;10657;51.276;6.390;2023-05-07T05:27:10;15.00;99.90
20998;DHT22;10657;51.276;6.390;2023-05-07T05:29:37;15.00;99.90
20998;DHT22;10657;51.276;6.390;2023-05-07T05:32:03;15.00;99.90
20998;DHT22;10657;51.276;6.390;2023-05-07T05:34:30;15.00;99.90
20998;DHT22;10657;51.276;6.390;2023-05-07T05:36:57;15.00;99.90
20998;DHT22;10657;51.276;6.390;2023-05-07T05:39:24;15.10;99.90
20998;DHT22;10657;51.276;6.390;2023-05-07T05:41:51;15.20;99.90
20998;DHT22;10657;51.276;6.390;2023-05-07T05:44:18;15.20;99.90
20998;DHT22;10657;51.276;6.390;2023-05-07T05:46:44;15.20;99.90
20998;DHT22;10657;51.276;6.390;2023-05-07T05:49:11;15.30;99.90
20998;DHT22;10657;51.276;6.390;2023-05-07T05:51:38;15.30;99.90
20998;DHT22;10657;51.276;6.390;2023-05-07T05:54:04;15.40;99.90
20998;DHT22;10657;51.276;6.390;2023-05-07T05:56:31;15.40;99.90
20998;DHT22;10657;51.276;6.390;2023-05-07T05:58:58;15.30;99.90
20998;DHT22;10657;51.276;6.390;2023-05-07T06:01:25;15.40;99.90
20998;DHT22;10657;51.276;6.390;2023-05-07T06:03:52;15.40;99.90
20998;DHT22;10657;51.276;6.390;2023-05-07T06:06:18;15.40;99.90
20998;DHT22;10657;51.276;6.390;2023-05-07T06:08:45;15.50;99.90
20998;DHT22;10657;51.276;6.390;2023-05-07T06:11:12;15.50;99.90
20998;DHT22;10657;51.276;6.390;2023-05-07T06:13:38;15.50;99.90
20998;DHT22;10657;51.276;6.390;2023-05-07T06:16:06;15.60;99.90
20998;DHT22;10657;51.276;6.390;2023-05-07T06:18:32;15.60;99.90
20998;DHT22;10657;51.276;6.390;2023-05-07T06:20:59;15.70;99.90
20998;DHT22;10657;51.276;6.390;2023-05-07T06:23:26;15.60;99.90
20998;DHT22;10657;51.276;6.390;2023-05-07T06:25:52;15.60;99.90
20998;DHT22;10657;51.276;6.390;2023-05-07T06:28:19;15.70;99.90
20998;DHT22;10657;51.276;6.390;2023-05-07T06:30:46;15.70;99.90
20998;DHT22;10657;51.276;6.390;2023-05-07T06:33:12;15.70;99.90
20998;DHT22;10657;51.276;6.390;2023-05-07T06:35:39;15.70;99.90
20998;DHT22;10657;51.276;6.390;2023-05-07T06:38:06;15.70;99.90
20998;DHT22;10657;51.276;6.390;2023-05-07T06:40:32;15.70;99.90
20998;DHT22;10657;51.276;6.390;2023-05-07T06:42:59;15.80;99.90
20998;DHT22;10657;51.276;6.390;2023-05-07T06:45:25;15.80;99.90
20998;DHT22;10657;51.276;6.390;2023-05-07T06:47:52;16.00;99.90
20998;DHT22;10657;51.276;6.390;2023-05-07T06:50:19;16.00;99.90
20998;DHT22;10657;51.276;6.390;2023-05-07T06:52:46;16.10;99.90
20998;DHT22;10657;51.276;6.390;2023-05-07T06:55:13;16.20;99.90
20998;DHT22;10657;51.276;6.390;2023-05-07T06:57:40;16.30;99.90
20998;DHT22;10657;51.276;6.390;2023-05-07T07:00:07;16.40;99.90
20998;DHT22;10657;51.276;6.390;2023-05-07T07:02:36;16.40;99.90
20998;DHT22;10657;51.276;6.390;2023-05-07T07:05:03;16.50;99.90
20998;DHT22;10657;51.276;6.390;2023-05-07T07:07:30;16.60;99.90
20998;DHT22;10657;51.276;6.390;2023-05-07T07:09:57;16.60;99.90
20998;DHT22;10657;51.276;6.390;2023-05-07T07:12:23;16.60;99.90
20998;DHT22;10657;51.276;6.390;2023-05-07T07:14:52;16.70;99.90
20998;DHT22;10657;51.276;6.390;2023-05-07T07:17:20;16.70;99.90
20998;DHT22;10657;51.276;6.390;2023-05-07T07:19:47;16.80;99.90
20998;DHT22;10657;51.276;6.390;2023-05-07T07:22:14;16.80;99.90
20998;DHT22;10657;51.276;6.390;2023-05-07T07:24:40;16.80;99.90
20998;DHT22;10657;51.276;6.390;2023-05-07T07:27:07;16.80;99.90
20998;DHT22;10657;51.276;6.390;2023-05-07T07:29:33;16.80;99.90
20998;DHT22;10657;51.276;6.390;2023-05-07T07:32:00;17.00;99.90
20998;DHT22;10657;51.276;6.390;2023-05-07T07:34:27;17.00;99.90
20998;DHT22;10657;51.276;6.390;2023-05-07T07:36:54;17.10;99.90
20998;DHT22;10657;51.276;6.390;2023-05-07T07:39:20;17.00;99.90
20998;DHT22;10657;51.276;6.390;2023-05-07T07:41:47;17.10;99.90
20998;DHT22;10657;51.276;6.390;2023-05-07T07:44:13;17.20;99.90
20998;DHT22;10657;51.276;6.390;2023-05-07T07:46:42;17.20;99.90
20998;DHT22;10657;51.276;6.390;2023-05-07T07:49:08;17.30;99.90
20998;DHT22;10657;51.276;6.390;2023-05-07T07:51:35;17.40;99.90
20998;DHT22;10657;51.276;6.390;2023-05-07T07:54:02;17.40;99.90
20998;DHT22;10657;51.276;6.390;2023-05-07T07:56:29;17.50;99.90
20998;DHT22;10657;51.276;6.390;2023-05-07T07:58:55;17.50;99.90
20998;DHT22;10657;51.276;6.390;2023-05-07T08:01:22;17.60;99.90
20998;DHT22;10657;51.276;6.390;2023-05-07T08:03:49;17.70;99.90
20998;DHT22;10657;51.276;6.390;2023-05-07T08:06:16;17.70;99.90
20998;DHT22;10657;51.276;6.390;2023-05-07T08:08:42;17.70;99.90
20998;DHT22;10657;51.276;6.390;2023-05-07T08:11:09;17.80;99.90
20998;DHT22;10657;51.276;6.390;2023-05-07T08:13:36;17.90;99.90
20998;DHT22;10657;51.276;6.390;2023-05-07T08:16:04;17.90;99.90
20998;DHT22;10657;51.276;6.390;2023-05-07T08:18:31;17.90;99.90
20998;DHT22;10657;51.276;6.390;2023-05-07T08:20:57;18.00;99.90
20998;DHT22;10657;51.276;6.390;2023-05-07T08:23:24;18.00;99.90
20998;DHT22;10657;51.276;6.390;2023-05-07T08:25:51;18.10;99.90
20998;DHT22;10657;51.276;6.390;2023-05-07T08:28:18;18.10;99.90
20998;DHT22;10657;51.276;6.390;2023-05-07T08:30:46;18.10;99.90
20998;DHT22;10657;51.276;6.390;2023-05-07T08:33:13;18.20;99.90
20998;DHT22;10657;51.276;6.390;2023-05-07T08:35:40;18.20;99.90
20998;DHT22;10657;51.276;6.390;2023-05-07T08:38:06;18.20;99.90
20998;DHT22;10657;51.276;6.390;2023-05-07T08:40:37;18.20;99.90
20998;DHT22;10657;51.276;6.390;2023-05-07T08:43:08;18.30;99.90
20998;DHT22;10657;51.276;6.390;2023-05-07T08:45:35;18.40;99.90
20998;DHT22;10657;51.276;6.390;2023-05-07T08:48:03;18.50;99.90
20998;DHT22;10657;51.276;6.390;2023-05-07T08:50:32;18.50;99.90
20998;DHT22;10657;51.276;6.390;2023-05-07T08:53:03;18.50;99.90
20998;DHT22;10657;51.276;6.390;2023-05-07T08:55:30;18.60;99.90
20998;DHT22;10657;51.276;6.390;2023-05-07T08:57:57;18.60;99.90
20998;DHT22;10657;51.276;6.390;2023-05-07T09:00:23;18.70;99.90
20998;DHT22;10657;51.276;6.390;2023-05-07T09:02:51;18.70;99.90
20998;DHT22;10657;51.276;6.390;2023-05-07T09:05:18;18.80;99.90
20998;DHT22;10657;51.276;6.390;2023-05-07T09:07:45;18.90;99.90
20998;DHT22;10657;51.276;6.390;2023-05-07T09:10:12;18.80;99.90
20998;DHT22;10657;51.276;6.390;2023-05-07T09:12:39;18.90;99.90
20998;DHT22;10657;51.276;6.390;2023-05-07T09:15:07;19.10;99.90
20998;DHT22;10657;51.276;6.390;2023-05-07T09:17:34;19.20;99.90
20998;DHT22;10657;51.276;6.390;2023-05-07T09:20:05;19.20;99.90
20998;DHT22;10657;51.276;6.390;2023-05-07T09:22:37;19.20;99.90
20998;DHT22;10657;51.276;6.390;2023-05-07T09:25:06;19.40;99.90
20998;DHT22;10657;51.276;6.390;2023-05-07T09:27:33;19.40;99.90
20998;DHT22;10657;51.276;6.390;2023-05-07T09:30:06;19.50;99.90
20998;DHT22;10657;51.276;6.390;2023-05-07T09:32:35;19.60;99.90
20998;DHT22;10657;51.276;6.390;2023-05-07T09:35:04;19.60;99.90
20998;DHT22;10657;51.276;6.390;2023-05-07T09:37:31;19.50;99.90
20998;DHT22;10657;51.276;6.390;2023-05-07T09:39:58;19.60;99.90
20998;DHT22;10657;51.276;6.390;2023-05-07T09:42:25;19.70;99.90
20998;DHT22;10657;51.276;6.390;2023-05-07T09:44:54;19.70;99.90
20998;DHT22;10657;51.276;6.390;2023-05-07T09:47:24;19.70;99.90
20998;DHT22;10657;51.276;6.390;2023-05-07T09:49:55;19.70;99.90
20998;DHT22;10657;51.276;6.390;2023-05-07T09:52:23;19.80;99.90
20998;DHT22;10657;51.276;6.390;2023-05-07T09:54:50;19.90;99.90
20998;DHT22;10657;51.276;6.390;2023-05-07T09:57:19;19.90;99.90
20998;DHT22;10657;51.276;6.390;2023-05-07T09:59:47;19.80;99.90
20998;DHT22;10657;51.276;6.390;2023-05-07T10:02:16;19.90;99.90
20998;DHT22;10657;51.276;6.390;2023-05-07T10:04:44;19.90;99.90
20998;DHT22;10657;51.276;6.390;2023-05-07T10:07:13;19.90;99.90
20998;DHT22;10657;51.276;6.390;2023-05-07T10:09:39;20.00;99.90
20998;DHT22;10657;51.276;6.390;2023-05-07T10:12:09;20.10;99.90
20998;DHT22;10657;51.276;6.390;2023-05-07T10:14:36;20.10;99.90
20998;DHT22;10657;51.276;6.390;2023-05-07T10:17:03;20.10;99.90
20998;DHT22;10657;51.276;6.390;2023-05-07T10:19:31;20.20;99.90
20998;DHT22;10657;51.276;6.390;2023-05-07T10:22:05;20.30;99.90
20998;DHT22;10657;51.276;6.390;2023-05-07T10:24:33;20.30;99.90
20998;DHT22;10657;51.276;6.390;2023-05-07T10:27:10;20.30;99.90
20998;DHT22;10657;51.276;6.390;2023-05-07T10:34:58;20.50;99.90
20998;DHT22;10657;51.276;6.390;2023-05-07T10:37:26;20.60;99.90
20998;DHT22;10657;51.276;6.390;2023-05-07T10:39:53;20.70;99.90
20998;DHT22;10657;51.276;6.390;2023-05-07T10:42:20;20.70;99.90
20998;DHT22;10657;51.276;6.390;2023-05-07T10:44:47;20.70;99.90
20998;DHT22;10657;51.276;6.390;2023-05-07T10:47:16;20.70;99.90
20998;DHT22;10657;51.276;6.390;2023-05-07T10:52:14;20.80;99.90
20998;DHT22;10657;51.276;6.390;2023-05-07T10:54:44;20.80;99.90
20998;DHT22;10657;51.276;6.390;2023-05-07T10:57:43;20.90;99.90
20998;DHT22;10657;51.276;6.390;2023-05-07T11:03:05;20.90;99.90
20998;DHT22;10657;51.276;6.390;2023-05-07T11:05:34;20.90;99.90
20998;DHT22;10657;51.276;6.390;2023-05-07T11:08:04;20.90;99.90
20998;DHT22;10657;51.276;6.390;2023-05-07T11:13:17;20.90;99.90
20998;DHT22;10657;51.276;6.390;2023-05-07T11:15:48;20.90;99.90
20998;DHT22;10657;51.276;6.390;2023-05-07T11:18:15;20.90;99.90
20998;DHT22;10657;51.276;6.390;2023-05-07T11:26:08;21.00;99.90
20998;DHT22;10657;51.276;6.390;2023-05-07T11:28:40;21.00;99.90
20998;DHT22;10657;51.276;6.390;2023-05-07T11:31:07;21.10;99.90
20998;DHT22;10657;51.276;6.390;2023-05-07T11:33:35;21.20;99.90
20998;DHT22;10657;51.276;6.390;2023-05-07T11:36:03;21.30;99.90
20998;DHT22;10657;51.276;6.390;2023-05-07T11:38:34;21.30;99.90
20998;DHT22;10657;51.276;6.390;2023-05-07T11:41:01;21.30;99.90
20998;DHT22;10657;51.276;6.390;2023-05-07T11:43:28;21.30;99.90
20998;DHT22;10657;51.276;6.390;2023-05-07T11:46:08;21.40;99.90
20998;DHT22;10657;51.276;6.390;2023-05-07T11:48:35;21.40;99.90
20998;DHT22;10657;51.276;6.390;2023-05-07T11:51:04;21.50;99.90
20998;DHT22;10657;51.276;6.390;2023-05-07T11:53:42;21.30;99.90
20998;DHT22;10657;51.276;6.390;2023-05-07T11:56:16;21.40;99.90
20998;DHT22;10657;51.276;6.390;2023-05-07T11:58:44;21.30;99.90
20998;DHT22;10657;51.276;6.390;2023-05-07T12:01:12;21.30;99.90
20998;DHT22;10657;51.276;6.390;2023-05-07T12:03:44;21.20;99.90
20998;DHT22;10657;51.276;6.390;2023-05-07T12:06:16;21.20;99.90
20998;DHT22;10657;51.276;6.390;2023-05-07T12:08:44;21.10;99.90
20998;DHT22;10657;51.276;6.390;2023-05-07T12:11:22;21.10;99.90
20998;DHT22;10657;51.276;6.390;2023-05-07T12:13:49;21.10;99.90
20998;DHT22;10657;51.276;6.390;2023-05-07T12:16:16;21.00;99.90
20998;DHT22;10657;51.276;6.390;2023-05-07T12:18:44;21.00;99.90
20998;DHT22;10657;51.276;6.390;2023-05-07T12:21:11;21.00;99.90
20998;DHT22;10657;51.276;6.390;2023-05-07T12:23:38;20.90;99.90
20998;DHT22;10657;51.276;6.390;2023-05-07T12:26:05;20.90;99.90
20998;DHT22;10657;51.276;6.390;2023-05-07T12:28:37;20.90;99.90
20998;DHT22;10657;51.276;6.390;2023-05-07T12:31:05;20.90;99.90
20998;DHT22;10657;51.276;6.390;2023-05-07T12:33:33;20.90;99.90
20998;DHT22;10657;51.276;6.390;2023-05-07T12:36:04;20.90;99.90
20998;DHT22;10657;51.276;6.390;2023-05-07T12:38:35;20.90;99.90
20998;DHT22;10657;51.276;6.390;2023-05-07T12:41:02;20.90;99.90
20998;DHT22;10657;51.276;6.390;2023-05-07T12:43:29;20.80;99.90
20998;DHT22;10657;51.276;6.390;2023-05-07T12:45:59;20.90;99.90
20998;DHT22;10657;51.276;6.390;2023-05-07T12:48:26;20.90;99.90
20998;DHT22;10657;51.276;6.390;2023-05-07T12:50:56;20.80;99.90
20998;DHT22;10657;51.276;6.390;2023-05-07T12:53:25;20.80;99.90
20998;DHT22;10657;51.276;6.390;2023-05-07T12:55:54;20.80;99.90
20998;DHT22;10657;51.276;6.390;2023-05-07T12:58:29;20.80;99.90
20998;DHT22;10657;51.276;6.390;2023-05-07T13:00:58;20.80;99.90
20998;DHT22;10657;51.276;6.390;2023-05-07T13:03:30;20.90;99.90
20998;DHT22;10657;51.276;6.390;2023-05-07T13:06:05;20.90;99.90
20998;DHT22;10657;51.276;6.390;2023-05-07T13:08:41;20.90;99.90
20998;DHT22;10657;51.276;6.390;2023-05-07T13:11:12;20.90;99.90
20998;DHT22;10657;51.276;6.390;2023-05-07T13:13:40;20.90;99.90
20998;DHT22;10657;51.276;6.390;2023-05-07T13:16:09;21.00;99.90
20998;DHT22;10657;51.276;6.390;2023-05-07T13:18:37;21.00;99.90
20998;DHT22;10657;51.276;6.390;2023-05-07T13:21:04;21.10;99.90
20998;DHT22;10657;51.276;6.390;2023-05-07T13:23:31;21.20;99.90
20998;DHT22;10657;51.276;6.390;2023-05-07T13:25:57;21.30;99.90
20998;DHT22;10657;51.276;6.390;2023-05-07T13:28:24;21.30;99.90
20998;DHT22;10657;51.276;6.390;2023-05-07T13:30:52;21.40;99.90
20998;DHT22;10657;51.276;6.390;2023-05-07T13:33:19;21.50;99.90
20998;DHT22;10657;51.276;6.390;2023-05-07T13:35:46;21.70;99.90
20998;DHT22;10657;51.276;6.390;2023-05-07T13:38:12;21.70;99.90
20998;DHT22;10657;51.276;6.390;2023-05-07T13:40:39;21.70;99.90
20998;DHT22;10657;51.276;6.390;2023-05-07T13:43:06;21.90;99.90
20998;DHT22;10657;51.276;6.390;2023-05-07T13:45:32;21.80;99.90
20998;DHT22;10657;51.276;6.390;2023-05-07T13:48:00;21.60;99.90
20998;DHT22;10657;51.276;6.390;2023-05-07T13:50:27;21.60;99.90
20998;DHT22;10657;51.276;6.390;2023-05-07T13:52:55;21.40;99.90
20998;DHT22;10657;51.276;6.390;2023-05-07T13:55:23;21.40;99.90
20998;DHT22;10657;51.276;6.390;2023-05-07T13:57:57;21.40;99.90
20998;DHT22;10657;51.276;6.390;2023-05-07T14:00:25;21.40;99.90
20998;DHT22;10657;51.276;6.390;2023-05-07T14:02:52;21.40;99.90
20998;DHT22;10657;51.276;6.390;2023-05-07T14:05:20;21.40;99.90
20998;DHT22;10657;51.276;6.390;2023-05-07T14:07:47;21.30;99.90
20998;DHT22;10657;51.276;6.390;2023-05-07T14:10:15;21.30;99.90
20998;DHT22;10657;51.276;6.390;2023-05-07T14:12:42;21.20;99.90
20998;DHT22;10657;51.276;6.390;2023-05-07T14:15:09;21.20;99.90
20998;DHT22;10657;51.276;6.390;2023-05-07T14:17:36;21.20;99.90
20998;DHT22;10657;51.276;6.390;2023-05-07T14:20:03;21.10;99.90
20998;DHT22;10657;51.276;6.390;2023-05-07T14:22:30;21.00;99.90
20998;DHT22;10657;51.276;6.390;2023-05-07T14:24:56;21.00;99.90
20998;DHT22;10657;51.276;6.390;2023-05-07T14:27:39;21.00;99.90
20998;DHT22;10657;51.276;6.390;2023-05-07T14:30:06;21.00;99.90
20998;DHT22;10657;51.276;6.390;2023-05-07T14:32:33;21.00;99.90
20998;DHT22;10657;51.276;6.390;2023-05-07T14:35:00;21.00;99.90
20998;DHT22;10657;51.276;6.390;2023-05-07T14:37:27;21.00;99.90
20998;DHT22;10657;51.276;6.390;2023-05-07T14:39:54;21.00;99.90
20998;DHT22;10657;51.276;6.390;2023-05-07T14:42:21;20.90;99.90
20998;DHT22;10657;51.276;6.390;2023-05-07T14:44:47;20.90;99.90
20998;DHT22;10657;51.276;6.390;2023-05-07T14:47:14;20.90;99.90
20998;DHT22;10657;51.276;6.390;2023-05-07T14:49:45;20.90;99.90
20998;DHT22;10657;51.276;6.390;2023-05-07T14:52:11;21.00;99.90
20998;DHT22;10657;51.276;6.390;2023-05-07T14:54:38;21.00;99.90
20998;DHT22;10657;51.276;6.390;2023-05-07T14:57:06;21.00;99.90
20998;DHT22;10657;51.276;6.390;2023-05-07T14:59:33;21.00;99.90
20998;DHT22;10657;51.276;6.390;2023-05-07T15:01:59;21.00;99.90
20998;DHT22;10657;51.276;6.390;2023-05-07T15:04:29;21.00;99.90
20998;DHT22;10657;51.276;6.390;2023-05-07T15:06:56;21.00;99.90
20998;DHT22;10657;51.276;6.390;2023-05-07T15:09:22;21.00;99.90
20998;DHT22;10657;51.276;6.390;2023-05-07T15:11:49;21.00;99.90
20998;DHT22;10657;51.276;6.390;2023-05-07T15:14:16;20.90;99.90
20998;DHT22;10657;51.276;6.390;2023-05-07T15:16:42;20.60;99.90
20998;DHT22;10657;51.276;6.390;2023-05-07T15:19:09;20.50;99.90
20998;DHT22;10657;51.276;6.390;2023-05-07T15:21:36;20.40;99.90
20998;DHT22;10657;51.276;6.390;2023-05-07T15:24:02;20.40;99.90
20998;DHT22;10657;51.276;6.390;2023-05-07T15:26:29;20.50;99.90
20998;DHT22;10657;51.276;6.390;2023-05-07T15:28:56;20.40;99.90
20998;DHT22;10657;51.276;6.390;2023-05-07T15:31:24;20.30;99.90
20998;DHT22;10657;51.276;6.390;2023-05-07T15:33:52;20.20;99.90
20998;DHT22;10657;51.276;6.390;2023-05-07T15:36:20;20.00;99.90
20998;DHT22;10657;51.276;6.390;2023-05-07T15:38:46;19.90;99.90
20998;DHT22;10657;51.276;6.390;2023-05-07T15:41:13;19.80;99.90
20998;DHT22;10657;51.276;6.390;2023-05-07T15:43:45;19.80;99.90
20998;DHT22;10657;51.276;6.390;2023-05-07T15:46:12;19.90;99.90
20998;DHT22;10657;51.276;6.390;2023-05-07T15:48:43;19.90;99.90
20998;DHT22;10657;51.276;6.390;2023-05-07T15:51:10;19.80;99.90